首页
METAR-TAF:

METAR-TAF

机场 :

廊曼国际机场

曼谷, 泰国

纬度: 13-54-45N, 经度: 100-36-24E, 海拔: 4米

当前天气观测

该预报发布于16分钟前的08:00 UTC
风速9节,风向西,在西转西南西北之间变化
温度 34°C
湿度 53%
气压 1006 hPa
能见度10公里或以上
散云层高于3000英尺

METAR: VTBD 230800Z 27009KT 240V310 9999 SCT030 34/23 Q1006 NOSIG

时间: 15:16 (08:16 UTC)

预报

该预报发布于3小时和16分钟前的05:00 UTC
预报有效从23日的 06点(UTC)到 24日的 12点(UTC)
风速5节,风向西
能见度10公里或以上
少量云层高于2000英尺
成为
从 23日的 08点(UTC)到 23日的 10点(UTC)
风速8节,风向南转西南
短暂存在
从 23日的 11点(UTC)到 23日的 15点(UTC)
风速10节,风向西转西南,有时为20节阵风
能見度: 6000
少量云层高于2000英尺, 积雨云.
散云层高于3500英尺
雷暴, 小雨
成为
从 23日的 15点(UTC)到 23日的 17点(UTC)
风速5节,风向西
成为
从 24日的 08点(UTC)到 24日的 10点(UTC)
风速8节,风向南转西南

TAF: VTBD 230500Z 2306/2412 27005KT 9999 FEW020 BECMG 2308/2310 20008KT TEMPO 2311/2315 25010G20KT 6000 -TSRA FEW020CB SCT035 BECMG 2315/2317 26005KT BECMG 2408/2410 20008KT

超过4000个机场的气象观测和天气预报(METAR&TAF报告)。

可查询的气象台以黄色和红色小点在地图上表示。

将鼠标移到小点上方,可查看气象台名称。

然后点击查看天气观测和预报。

如需切换地图:点击带黑十字的绿色按钮放大地图;点击带横线的绿色按钮缩小地图;或者点击绿色箭头查看邻近地区的地图。


METAR-TAF: